createdAt,value
2022-11-07T00:02:11.124Z,4.30
2022-11-07T00:04:40.331Z,4.40
2022-11-07T00:07:09.865Z,4.40
2022-11-07T00:09:38.117Z,4.40
2022-11-07T00:12:05.468Z,4.40
2022-11-07T00:14:32.984Z,4.30
2022-11-07T00:17:00.385Z,4.40
2022-11-07T00:19:27.557Z,4.30
2022-11-07T00:22:04.751Z,4.40
2022-11-07T00:24:34.652Z,4.40
2022-11-07T00:27:02.026Z,4.40
2022-11-07T00:29:29.297Z,4.40
2022-11-07T00:31:56.892Z,4.70
2022-11-07T00:34:31.616Z,4.60
2022-11-07T00:37:00.008Z,4.90
2022-11-07T00:39:30.381Z,4.80
2022-11-07T00:41:58.139Z,4.90
2022-11-07T00:44:25.212Z,4.90
2022-11-07T00:46:52.676Z,5.00
2022-11-07T00:49:24.697Z,5.00
2022-11-07T00:51:53.508Z,5.10
2022-11-07T00:54:22.909Z,5.10
2022-11-07T00:56:49.993Z,5.00
2022-11-07T00:59:20.727Z,4.90
2022-11-07T01:01:47.975Z,4.90
2022-11-07T01:04:36.713Z,4.90
2022-11-07T01:07:07.190Z,4.80
2022-11-07T01:09:34.567Z,4.70
2022-11-07T01:12:03.632Z,4.80
2022-11-07T01:14:33.154Z,4.80
2022-11-07T01:17:00.426Z,4.80
2022-11-07T01:19:28.578Z,4.80
2022-11-07T01:21:57.109Z,4.70
2022-11-07T01:24:27.508Z,4.70
2022-11-07T01:26:59.239Z,4.70
2022-11-07T01:29:27.736Z,4.70
2022-11-07T01:31:55.428Z,4.50
2022-11-07T01:34:23.722Z,4.60
2022-11-07T01:36:54.747Z,4.50
2022-11-07T01:39:22.647Z,4.50
2022-11-07T01:41:50.318Z,4.40
2022-11-07T01:44:18.787Z,4.40
2022-11-07T01:46:47.820Z,4.30
2022-11-07T01:49:31.728Z,4.40
2022-11-07T01:52:20.032Z,4.40
2022-11-07T01:55:02.925Z,4.40
2022-11-07T01:57:37.588Z,4.40
2022-11-07T02:00:08.645Z,4.40
2022-11-07T02:02:36.289Z,4.40
2022-11-07T02:05:05.151Z,4.40
2022-11-07T02:07:36.726Z,4.50
2022-11-07T02:10:08.115Z,4.60
2022-11-07T02:12:38.392Z,4.70
2022-11-07T02:15:07.847Z,4.60
2022-11-07T02:17:39.593Z,4.70
2022-11-07T02:20:08.127Z,4.80
2022-11-07T02:22:58.585Z,4.90
2022-11-07T02:25:26.200Z,5.00
2022-11-07T02:28:00.972Z,5.20
2022-11-07T02:30:33.130Z,5.10
2022-11-07T02:33:04.862Z,5.20
2022-11-07T02:35:45.355Z,5.40
2022-11-07T02:38:40.009Z,5.50
2022-11-07T02:41:21.998Z,5.50
2022-11-07T02:44:04.699Z,5.60
2022-11-07T02:46:35.767Z,5.60
2022-11-07T02:49:05.930Z,5.50
2022-11-07T02:51:33.795Z,5.80
2022-11-07T02:54:03.711Z,5.90
2022-11-07T02:56:31.405Z,6.00
2022-11-07T02:58:58.832Z,6.00
2022-11-07T03:01:28.584Z,6.20
2022-11-07T03:03:57.732Z,6.10
2022-11-07T03:06:25.895Z,6.20
2022-11-07T03:09:23.830Z,6.30
2022-11-07T03:11:51.358Z,6.50
2022-11-07T03:14:18.946Z,6.50
2022-11-07T03:16:49.851Z,6.60
2022-11-07T03:19:17.244Z,6.70
2022-11-07T03:21:47.093Z,6.70
2022-11-07T03:24:21.697Z,6.50
2022-11-07T03:26:49.669Z,6.40
2022-11-07T03:29:16.979Z,6.60
2022-11-07T03:31:44.036Z,6.80
2022-11-07T03:34:15.090Z,6.60
2022-11-07T03:36:44.245Z,6.40
2022-11-07T03:39:14.028Z,6.40
2022-11-07T03:41:42.096Z,6.50
2022-11-07T03:44:12.813Z,6.70
2022-11-07T03:46:39.663Z,6.60
2022-11-07T03:49:07.019Z,6.50
2022-11-07T03:51:34.633Z,6.60
2022-11-07T03:54:03.896Z,6.60
2022-11-07T03:56:32.505Z,6.60
2022-11-07T03:58:59.800Z,6.60
2022-11-07T04:01:27.494Z,6.50
2022-11-07T04:03:56.491Z,6.50
2022-11-07T04:06:23.702Z,6.60
2022-11-07T04:08:51.161Z,6.60
2022-11-07T04:11:45.641Z,6.60
2022-11-07T04:14:31.151Z,6.50
2022-11-07T04:17:16.958Z,6.50
2022-11-07T04:19:44.800Z,6.60
2022-11-07T04:22:16.895Z,6.90
2022-11-07T04:24:45.979Z,7.10
2022-11-07T04:27:33.509Z,7.00
2022-11-07T04:30:19.635Z,7.10
2022-11-07T04:32:52.700Z,6.90
2022-11-07T04:35:21.399Z,7.00
2022-11-07T04:37:58.145Z,6.90
2022-11-07T04:40:25.717Z,6.90
2022-11-07T04:42:55.828Z,7.00
2022-11-07T04:45:24.636Z,6.90
2022-11-07T04:47:52.392Z,7.00
2022-11-07T04:50:20.397Z,6.90
2022-11-07T04:52:48.649Z,7.10
2022-11-07T04:55:25.705Z,7.20
2022-11-07T04:57:53.410Z,7.40
2022-11-07T05:00:21.169Z,7.20
2022-11-07T05:02:53.129Z,7.40
2022-11-07T05:05:20.574Z,7.60
2022-11-07T05:07:48.572Z,7.70
2022-11-07T05:10:24.104Z,7.70
2022-11-07T05:12:52.047Z,7.50
2022-11-07T05:15:19.322Z,7.40
2022-11-07T05:17:51.779Z,7.50
2022-11-07T05:20:34.895Z,7.50
2022-11-07T05:23:19.376Z,7.60
2022-11-07T05:25:53.698Z,7.70
2022-11-07T05:28:31.152Z,7.80
2022-11-07T05:31:04.264Z,8.10
2022-11-07T05:33:32.100Z,8.10
2022-11-07T05:36:16.953Z,8.10
2022-11-07T05:38:46.223Z,8.00
2022-11-07T05:41:41.960Z,8.10
2022-11-07T05:44:11.304Z,8.20
2022-11-07T05:46:46.475Z,8.30
2022-11-07T05:49:13.387Z,8.10
2022-11-07T05:51:47.322Z,8.20
2022-11-07T05:54:15.571Z,8.20
2022-11-07T05:56:44.650Z,8.20
2022-11-07T05:59:12.714Z,8.10
2022-11-07T06:01:39.956Z,8.30
2022-11-07T06:04:07.959Z,8.50
2022-11-07T06:06:35.571Z,8.70
2022-11-07T06:09:02.314Z,8.60
2022-11-07T06:11:30.744Z,8.60
2022-11-07T06:14:00.613Z,8.70
2022-11-07T06:16:28.511Z,8.70
2022-11-07T06:18:55.756Z,8.80
2022-11-07T06:21:23.609Z,8.90
2022-11-07T06:23:53.156Z,9.00
2022-11-07T06:26:21.743Z,9.10
2022-11-07T06:28:48.625Z,9.20
2022-11-07T06:31:18.026Z,9.10
2022-11-07T06:33:45.030Z,9.20
2022-11-07T06:36:14.923Z,9.40
2022-11-07T06:38:41.682Z,9.60
2022-11-07T06:41:12.160Z,9.30
2022-11-07T06:43:39.232Z,9.40
2022-11-07T06:46:10.072Z,9.40
2022-11-07T06:48:37.023Z,9.50
2022-11-07T06:51:06.044Z,9.60
2022-11-07T06:53:33.414Z,9.60
2022-11-07T06:56:02.150Z,9.60
2022-11-07T06:58:29.434Z,9.70
2022-11-07T07:01:02.445Z,9.70
2022-11-07T07:03:29.935Z,9.70
2022-11-07T07:06:05.278Z,9.60
2022-11-07T07:08:33.031Z,9.50
2022-11-07T07:11:08.716Z,9.40
2022-11-07T07:13:36.527Z,9.20
2022-11-07T07:16:03.984Z,9.20
2022-11-07T07:18:32.028Z,9.10
2022-11-07T07:21:13.408Z,9.20
2022-11-07T07:23:41.596Z,9.10
2022-11-07T07:26:12.494Z,9.10
2022-11-07T07:28:39.286Z,9.10
2022-11-07T07:31:14.884Z,9.60
2022-11-07T07:33:46.188Z,10.00
2022-11-07T07:36:20.264Z,10.30
2022-11-07T07:38:48.186Z,10.40
2022-11-07T07:41:15.391Z,10.50
2022-11-07T07:43:42.149Z,10.40
2022-11-07T07:46:13.833Z,10.40
2022-11-07T07:48:41.194Z,10.40
2022-11-07T07:51:08.065Z,10.60
2022-11-07T07:53:35.232Z,10.70
2022-11-07T07:56:06.296Z,10.90
2022-11-07T07:58:33.605Z,11.10
2022-11-07T08:01:01.140Z,11.40
2022-11-07T08:03:50.602Z,11.30
2022-11-07T08:06:33.717Z,11.30
2022-11-07T08:09:00.812Z,11.30
2022-11-07T08:11:28.078Z,11.30
2022-11-07T08:13:58.483Z,11.40
2022-11-07T08:16:28.538Z,11.60
2022-11-07T08:18:55.690Z,11.80
2022-11-07T08:21:22.673Z,12.10
2022-11-07T08:23:53.859Z,12.40
2022-11-07T08:26:21.009Z,12.60
2022-11-07T08:28:47.813Z,12.80
2022-11-07T08:31:14.691Z,13.00
2022-11-07T08:33:41.984Z,13.00
2022-11-07T08:36:09.087Z,13.20
2022-11-07T08:38:37.231Z,13.60
2022-11-07T08:41:04.788Z,13.90
2022-11-07T08:43:32.221Z,14.10
2022-11-07T08:45:59.143Z,14.30
2022-11-07T08:48:25.908Z,14.40
2022-11-07T08:50:54.744Z,13.90
2022-11-07T08:53:23.187Z,13.80
2022-11-07T08:55:50.066Z,13.70
2022-11-07T08:58:17.715Z,13.60
2022-11-07T09:00:44.936Z,13.40
2022-11-07T09:03:43.700Z,13.40
2022-11-07T09:06:02.950Z,13.20
2022-11-07T09:08:29.747Z,13.20
2022-11-07T09:11:00.868Z,13.30
2022-11-07T09:13:27.622Z,13.50
2022-11-07T09:15:59.890Z,13.40
2022-11-07T09:18:27.822Z,13.40
2022-11-07T09:20:55.273Z,13.30
2022-11-07T09:23:22.501Z,13.10
2022-11-07T09:25:49.433Z,13.10
2022-11-07T09:28:17.332Z,13.30
2022-11-07T09:30:46.467Z,13.60
2022-11-07T09:33:13.478Z,13.70
2022-11-07T09:35:40.467Z,13.70
2022-11-07T09:38:07.961Z,13.80
2022-11-07T09:41:00.213Z,13.90
2022-11-07T09:43:30.458Z,13.80
2022-11-07T09:46:09.128Z,13.90
2022-11-07T09:48:51.490Z,13.90
2022-11-07T09:51:28.679Z,14.10
2022-11-07T09:54:04.285Z,14.00
2022-11-07T09:56:33.314Z,14.00
2022-11-07T09:59:11.057Z,14.10
2022-11-07T10:01:41.323Z,14.40
2022-11-07T10:04:25.892Z,14.30
2022-11-07T10:06:59.679Z,14.70
2022-11-07T10:09:55.947Z,15.00
2022-11-07T10:12:52.628Z,14.90
2022-11-07T10:15:27.483Z,15.00
2022-11-07T10:18:16.139Z,14.90
2022-11-07T10:21:23.042Z,14.80
2022-11-07T10:23:58.200Z,15.20
2022-11-07T10:26:27.953Z,15.30
2022-11-07T10:29:11.595Z,15.40
2022-11-07T10:31:53.855Z,15.20
2022-11-07T10:34:33.579Z,14.80
2022-11-07T10:37:00.881Z,14.80
2022-11-07T10:39:32.268Z,14.90
2022-11-07T10:42:17.069Z,14.90
2022-11-07T10:44:45.206Z,15.20
2022-11-07T10:47:25.944Z,15.40
2022-11-07T10:50:01.730Z,15.30
2022-11-07T10:52:29.968Z,15.10
2022-11-07T10:55:17.446Z,14.90
2022-11-07T10:57:49.989Z,15.00
2022-11-07T11:00:32.700Z,15.20
2022-11-07T11:03:00.188Z,15.00
2022-11-07T11:05:42.454Z,14.80
2022-11-07T11:08:21.487Z,14.80
2022-11-07T11:10:49.250Z,15.20
2022-11-07T11:13:34.375Z,15.20
2022-11-07T11:16:27.158Z,15.10
2022-11-07T11:18:57.583Z,15.50
2022-11-07T11:21:24.892Z,15.70
2022-11-07T11:23:53.008Z,15.60
2022-11-07T11:26:33.981Z,15.40
2022-11-07T11:29:18.541Z,15.60
2022-11-07T11:31:55.768Z,16.00
2022-11-07T11:34:34.602Z,16.00
2022-11-07T11:37:08.319Z,15.80
2022-11-07T11:40:04.344Z,15.80
2022-11-07T11:42:42.810Z,15.60
2022-11-07T11:45:17.299Z,15.50
2022-11-07T11:48:05.849Z,15.40
2022-11-07T11:50:43.846Z,15.60
2022-11-07T11:53:18.690Z,15.70
2022-11-07T11:55:57.230Z,15.70
2022-11-07T11:58:36.106Z,15.40
2022-11-07T12:01:34.047Z,15.50
2022-11-07T12:04:26.290Z,15.30
2022-11-07T12:07:03.114Z,15.10
2022-11-07T12:09:37.648Z,15.00
2022-11-07T12:12:15.763Z,14.80
2022-11-07T12:15:20.557Z,14.60
2022-11-07T12:17:56.240Z,14.40
2022-11-07T12:20:26.080Z,14.30
2022-11-07T12:23:17.477Z,14.20
2022-11-07T12:25:54.342Z,14.00
2022-11-07T12:28:47.291Z,13.70
2022-11-07T12:31:38.946Z,13.70
2022-11-07T12:34:30.652Z,13.70
2022-11-07T12:37:20.980Z,13.70
2022-11-07T12:40:12.403Z,13.60
2022-11-07T12:43:00.028Z,13.40
2022-11-07T12:45:53.997Z,13.30
2022-11-07T12:48:26.338Z,13.30
2022-11-07T12:51:15.549Z,13.40
2022-11-07T12:54:44.313Z,13.30
2022-11-07T12:57:24.919Z,13.40
2022-11-07T12:59:58.352Z,13.30
2022-11-07T13:02:40.951Z,13.20
2022-11-07T13:05:35.485Z,13.20
2022-11-07T13:08:35.327Z,13.20
2022-11-07T13:11:24.478Z,13.20
2022-11-07T13:13:54.675Z,13.20
2022-11-07T13:16:30.195Z,13.20
2022-11-07T13:19:12.733Z,13.10
2022-11-07T13:21:44.818Z,13.00
2022-11-07T13:24:22.459Z,13.00
2022-11-07T13:26:49.659Z,13.00
2022-11-07T13:29:36.266Z,13.20
2022-11-07T13:32:11.107Z,13.20
2022-11-07T13:34:55.832Z,13.30
2022-11-07T13:37:38.049Z,13.30
2022-11-07T13:40:14.980Z,13.30
2022-11-07T13:42:44.380Z,13.30
2022-11-07T13:45:37.706Z,13.20
2022-11-07T13:48:10.901Z,13.10
2022-11-07T13:50:44.954Z,13.00
2022-11-07T13:53:31.673Z,13.00
2022-11-07T13:56:11.907Z,12.90
2022-11-07T13:58:41.693Z,13.00
2022-11-07T14:01:12.975Z,13.00
2022-11-07T14:03:40.005Z,12.80
2022-11-07T14:06:07.829Z,12.80
2022-11-07T14:08:39.760Z,12.70
2022-11-07T14:11:22.576Z,12.70
2022-11-07T14:13:53.063Z,12.80
2022-11-07T14:16:25.430Z,12.80
2022-11-07T14:19:00.109Z,12.70
2022-11-07T14:21:33.053Z,12.60
2022-11-07T14:24:02.895Z,12.60
2022-11-07T14:26:34.428Z,12.50
2022-11-07T14:29:02.322Z,12.50
2022-11-07T14:31:36.006Z,12.50
2022-11-07T14:34:25.174Z,12.60
2022-11-07T14:36:56.872Z,12.40
2022-11-07T14:39:26.063Z,12.50
2022-11-07T14:41:56.276Z,12.20
2022-11-07T14:44:53.445Z,12.50
2022-11-07T14:47:32.930Z,12.60
2022-11-07T14:50:01.933Z,12.50
2022-11-07T14:52:38.553Z,12.40
2022-11-07T14:55:13.400Z,12.30
2022-11-07T14:57:41.172Z,12.40
2022-11-07T15:00:17.602Z,12.20
2022-11-07T15:02:47.894Z,11.90
2022-11-07T15:05:37.466Z,11.80
2022-11-07T15:08:05.007Z,12.00
2022-11-07T15:10:39.779Z,12.00
2022-11-07T15:13:29.230Z,11.80
2022-11-07T15:16:15.954Z,11.50
2022-11-07T15:18:47.399Z,11.50
2022-11-07T15:21:32.473Z,11.30
2022-11-07T15:24:01.646Z,11.10
2022-11-07T15:26:35.068Z,11.00
2022-11-07T15:29:23.598Z,11.20
2022-11-07T15:31:50.777Z,11.10
2022-11-07T15:34:33.686Z,11.40
2022-11-07T15:37:21.388Z,11.30
2022-11-07T15:39:49.452Z,11.30
2022-11-07T15:42:17.583Z,11.40
2022-11-07T15:44:49.319Z,11.40
2022-11-07T15:47:20.336Z,11.20
2022-11-07T15:49:48.060Z,10.90
2022-11-07T15:52:16.022Z,10.90
2022-11-07T15:54:47.036Z,11.00
2022-11-07T15:57:14.025Z,10.80
2022-11-07T15:59:45.914Z,10.80
2022-11-07T16:02:17.457Z,10.60
2022-11-07T16:04:45.648Z,10.60
2022-11-07T16:07:17.996Z,10.50
2022-11-07T16:09:49.028Z,10.40
2022-11-07T16:12:20.061Z,10.50
2022-11-07T16:14:48.689Z,10.50
2022-11-07T16:17:22.223Z,10.40
2022-11-07T16:19:50.880Z,10.70
2022-11-07T16:22:20.547Z,10.80
2022-11-07T16:24:49.854Z,11.00
2022-11-07T16:27:20.499Z,11.10
2022-11-07T16:29:52.491Z,11.10
2022-11-07T16:32:19.765Z,11.00
2022-11-07T16:34:51.986Z,10.80
2022-11-07T16:37:20.847Z,10.90
2022-11-07T16:39:48.508Z,11.00
2022-11-07T16:42:18.497Z,11.10
2022-11-07T16:44:46.862Z,11.20
2022-11-07T16:47:19.477Z,11.20
2022-11-07T16:49:50.973Z,11.20
2022-11-07T16:52:26.496Z,11.10
2022-11-07T16:55:00.121Z,10.80
2022-11-07T16:57:33.294Z,10.90
2022-11-07T17:00:07.122Z,10.80
2022-11-07T17:02:34.353Z,10.70
2022-11-07T17:05:02.200Z,10.40
2022-11-07T17:07:29.220Z,10.30
2022-11-07T17:09:56.848Z,10.20
2022-11-07T17:12:26.767Z,10.20
2022-11-07T17:14:56.900Z,10.30
2022-11-07T17:17:27.150Z,10.20
2022-11-07T17:19:54.367Z,10.10
2022-11-07T17:22:21.986Z,10.00
2022-11-07T17:24:49.462Z,9.90
2022-11-07T17:27:25.226Z,9.90
2022-11-07T17:29:55.250Z,9.90
2022-11-07T17:32:23.498Z,10.10
2022-11-07T17:35:25.699Z,9.90
2022-11-07T17:37:46.991Z,10.10
2022-11-07T17:46:21.438Z,10.00
2022-11-07T17:48:50.790Z,9.80
2022-11-07T17:51:19.188Z,9.80
2022-11-07T17:53:54.954Z,9.90
2022-11-07T17:56:27.521Z,9.70
2022-11-07T17:59:01.810Z,9.80
2022-11-07T18:01:32.786Z,9.80
2022-11-07T18:04:06.499Z,9.80
2022-11-07T18:06:38.198Z,9.90
2022-11-07T18:09:16.483Z,9.90
2022-11-07T18:11:44.696Z,9.80
2022-11-07T18:14:14.610Z,9.80
2022-11-07T18:16:41.869Z,9.70
2022-11-07T18:19:10.830Z,9.70
2022-11-07T18:21:37.936Z,9.90
2022-11-07T18:24:05.644Z,9.80
2022-11-07T18:26:33.503Z,9.80
2022-11-07T18:29:06.093Z,9.70
2022-11-07T18:31:37.651Z,9.60
2022-11-07T18:34:09.407Z,9.70
2022-11-07T18:36:38.988Z,9.60
2022-11-07T18:39:08.936Z,9.40
2022-11-07T18:41:36.905Z,9.40
2022-11-07T18:44:05.212Z,9.30
2022-11-07T18:46:32.935Z,9.40
2022-11-07T18:49:01.544Z,9.20
2022-11-07T18:51:29.422Z,9.10
2022-11-07T18:53:57.091Z,9.10
2022-11-07T18:56:24.625Z,9.10
2022-11-07T18:58:52.310Z,9.20
2022-11-07T19:01:23.658Z,9.10
2022-11-07T19:03:51.311Z,9.10
2022-11-07T19:06:22.018Z,9.00
2022-11-07T19:08:51.370Z,9.20
2022-11-07T19:11:22.261Z,9.10
2022-11-07T19:13:49.708Z,9.00
2022-11-07T19:16:21.821Z,9.10
2022-11-07T19:18:50.934Z,9.10
2022-11-07T19:21:21.434Z,9.30
2022-11-07T19:23:50.946Z,9.40
2022-11-07T19:26:23.559Z,9.30
2022-11-07T19:31:38.745Z,9.30
2022-11-07T19:34:05.908Z,9.30
2022-11-07T19:36:36.193Z,9.30
2022-11-07T19:39:06.750Z,9.50
2022-11-07T19:41:34.817Z,9.40
2022-11-07T19:44:04.479Z,9.60
2022-11-07T19:46:33.483Z,9.60
2022-11-07T19:49:04.697Z,9.60
2022-11-07T19:51:36.184Z,9.40
2022-11-07T19:54:11.865Z,9.40
2022-11-07T19:56:39.917Z,9.70
2022-11-07T19:59:35.120Z,9.50
2022-11-07T20:02:31.059Z,9.70
2022-11-07T20:04:57.296Z,9.70
2022-11-07T20:07:24.726Z,9.60
2022-11-07T20:09:52.555Z,9.70
2022-11-07T20:12:19.520Z,9.60
2022-11-07T20:14:47.505Z,9.60
2022-11-07T20:17:15.490Z,9.50
2022-11-07T20:19:42.372Z,9.60
2022-11-07T20:22:12.138Z,9.60
2022-11-07T20:24:39.847Z,9.60
2022-11-07T20:27:07.163Z,9.60
2022-11-07T20:29:34.443Z,9.60
2022-11-07T20:32:07.957Z,9.60
2022-11-07T20:34:34.850Z,9.40
2022-11-07T20:37:02.301Z,9.50
2022-11-07T20:39:30.056Z,9.50
2022-11-07T20:42:01.132Z,9.50
2022-11-07T20:44:31.025Z,9.50
2022-11-07T20:46:58.446Z,9.40
2022-11-07T20:49:25.564Z,9.40
2022-11-07T20:51:56.628Z,9.30
2022-11-07T20:54:23.730Z,9.20
2022-11-07T20:56:51.162Z,9.00
2022-11-07T20:59:18.327Z,9.20
2022-11-07T21:01:51.524Z,9.20
2022-11-07T21:04:19.152Z,9.10
2022-11-07T21:06:51.661Z,9.10
2022-11-07T21:09:22.491Z,9.10
2022-11-07T21:11:54.630Z,8.90
2022-11-07T21:14:23.195Z,8.90
2022-11-07T21:16:53.725Z,8.90
2022-11-07T21:19:23.851Z,9.00
2022-11-07T21:21:51.065Z,9.00
2022-11-07T21:24:21.439Z,8.90
2022-11-07T21:26:49.184Z,9.00
2022-11-07T21:29:16.661Z,9.00
2022-11-07T21:31:48.404Z,9.10
2022-11-07T21:34:16.723Z,8.80
2022-11-07T21:36:43.713Z,8.70
2022-11-07T21:39:10.719Z,8.70
2022-11-07T21:41:39.335Z,8.70
2022-11-07T21:44:06.225Z,8.80
2022-11-07T21:46:35.878Z,8.70
2022-11-07T21:49:05.661Z,8.70
2022-11-07T21:51:35.425Z,8.60
2022-11-07T21:54:03.941Z,8.40
2022-11-07T21:56:35.514Z,8.50
2022-11-07T21:59:07.720Z,8.40
2022-11-07T22:01:37.144Z,8.50
2022-11-07T22:04:09.407Z,8.50
2022-11-07T22:06:41.436Z,8.50
2022-11-07T22:09:10.280Z,8.20
2022-11-07T22:11:38.515Z,8.30
2022-11-07T22:14:08.882Z,8.40
2022-11-07T22:16:38.966Z,8.30
2022-11-07T22:19:12.257Z,8.40
2022-11-07T22:21:40.680Z,8.20
2022-11-07T22:24:09.419Z,8.30
2022-11-07T22:26:38.094Z,8.30
2022-11-07T22:29:07.431Z,8.30
2022-11-07T22:31:35.191Z,8.30
2022-11-07T22:34:06.374Z,8.40
2022-11-07T22:36:33.290Z,8.30
2022-11-07T22:39:00.363Z,8.30
2022-11-07T22:41:29.769Z,8.20
2022-11-07T22:43:58.296Z,8.10
2022-11-07T22:46:30.637Z,8.30
2022-11-07T22:49:01.522Z,8.10
2022-11-07T22:51:32.748Z,8.10
2022-11-07T22:54:13.588Z,8.30
2022-11-07T22:56:42.014Z,8.30
2022-11-07T22:59:11.121Z,8.30
2022-11-07T23:01:40.656Z,8.30
2022-11-07T23:04:13.377Z,8.40
2022-11-07T23:06:40.943Z,8.50
2022-11-07T23:09:13.889Z,8.40
2022-11-07T23:11:45.729Z,8.40
2022-11-07T23:14:18.633Z,8.30
2022-11-07T23:16:49.555Z,8.40
2022-11-07T23:19:20.427Z,8.40
2022-11-07T23:21:50.114Z,8.50
2022-11-07T23:24:18.751Z,8.60
2022-11-07T23:26:49.216Z,8.60
2022-11-07T23:29:20.511Z,8.80
2022-11-07T23:31:49.421Z,8.60
2022-11-07T23:34:20.860Z,8.50
2022-11-07T23:36:54.605Z,8.50
2022-11-07T23:39:23.709Z,8.30
2022-11-07T23:41:52.518Z,8.00
2022-11-07T23:44:19.965Z,8.00
2022-11-07T23:47:09.696Z,8.00
2022-11-07T23:49:55.104Z,8.10
2022-11-07T23:52:22.172Z,8.30
2022-11-07T23:55:09.718Z,8.20
2022-11-07T23:57:57.728Z,8.30
